Time;durP1;ratioP1;P1;durP2;ratioP2;P2;SDS_P1;SDS_P2;PMS_P1;PMS_P2;Temp;Humidity;BMP_temperature;BMP_pressure;BME280_temperature;BME280_humidity;BME280_pressure;Samples;Min_cycle;Max_cycle;Signal;HPM_P1;HPM_P2
2021/05/25 00:00:49;;;;;;;1.30;1.07;;;10.70;77.80;;;;;;4999201;28;20448;-81
2021/05/25 00:03:23;;;;;;;1.20;1.10;;;10.60;78.40;;;;;;5002579;28;20513;-80
2021/05/25 00:05:59;;;;;;;3.77;0.93;;;10.60;78.40;;;;;;4999148;28;20486;-80
2021/05/25 00:08:34;;;;;;;0.90;0.77;;;10.50;79.10;;;;;;5002877;28;20451;-80
2021/05/25 00:11:09;;;;;;;2.20;1.00;;;10.50;79.30;;;;;;4992482;28;20495;-80
2021/05/25 00:13:44;;;;;;;0.87;0.80;;;10.50;81.80;;;;;;4989818;28;20440;-80
2021/05/25 00:16:18;;;;;;;2.60;1.00;;;10.60;81.30;;;;;;4996384;28;20977;-80
2021/05/25 00:18:53;;;;;;;1.53;0.97;;;10.50;81.30;;;;;;4995424;28;20456;-80
2021/05/25 00:21:29;;;;;;;1.00;0.90;;;10.50;81.10;;;;;;4993989;28;21041;-80
2021/05/25 00:24:04;;;;;;;1.77;0.90;;;10.50;80.90;;;;;;5001117;28;20470;-80
2021/05/25 00:26:39;;;;;;;0.70;0.70;;;10.40;79.80;;;;;;4995249;28;20506;-80
2021/05/25 00:29:14;;;;;;;1.17;0.87;;;10.30;80.80;;;;;;4997970;28;20467;-80
2021/05/25 00:31:49;;;;;;;0.90;0.73;;;10.30;81.30;;;;;;4990827;28;20460;-80
2021/05/25 00:34:23;;;;;;;1.57;0.80;;;10.20;80.80;;;;;;4999430;28;20950;-80
2021/05/25 00:36:59;;;;;;;0.63;0.63;;;10.20;79.70;;;;;;4989786;28;20448;-80
2021/05/25 00:39:34;;;;;;;0.90;0.90;;;10.10;81.70;;;;;;4993370;28;20474;-79
2021/05/25 00:42:09;;;;;;;1.57;0.70;;;10.10;81.30;;;;;;4989291;28;21035;-80
2021/05/25 00:44:44;;;;;;;1.40;0.90;;;10.00;81.20;;;;;;4998282;28;20566;-80
2021/05/25 00:47:18;;;;;;;0.80;0.63;;;10.00;82.30;;;;;;4995358;28;20550;-80
2021/05/25 00:49:53;;;;;;;1.07;0.80;;;10.10;82.00;;;;;;4996737;28;20467;-80
2021/05/25 00:52:29;;;;;;;2.60;1.00;;;10.00;80.90;;;;;;4990920;28;20451;-80
2021/05/25 00:55:03;;;;;;;2.10;0.67;;;10.00;81.50;;;;;;4991641;28;20485;-81
2021/05/25 00:57:39;;;;;;;1.00;0.80;;;10.00;80.80;;;;;;4997964;28;20475;-81
2021/05/25 01:00:13;;;;;;;2.13;0.70;;;10.00;81.00;;;;;;5001862;28;20443;-81
2021/05/25 01:02:48;;;;;;;2.93;0.70;;;9.90;81.60;;;;;;5001100;28;20464;-82
2021/05/25 01:05:23;;;;;;;1.40;0.63;;;10.00;80.20;;;;;;5005394;28;20522;-81
2021/05/25 01:07:58;;;;;;;1.23;0.70;;;9.90;80.60;;;;;;4999649;28;20449;-82
2021/05/25 01:10:36;;;;;;;0.73;0.60;;;9.90;80.40;;;;;;5006909;28;20482;-80
2021/05/25 01:13:14;;;;;;;1.07;0.80;;;9.90;81.20;;;;;;5001187;28;20452;-79
2021/05/25 01:15:50;;;;;;;4.27;0.70;;;9.90;80.20;;;;;;4992969;28;20524;-82
2021/05/25 01:18:26;;;;;;;2.23;1.10;;;9.80;80.40;;;;;;4990315;28;20543;-79
2021/05/25 01:21:01;;;;;;;1.73;0.90;;;9.80;81.10;;;;;;5002044;28;20519;-79
2021/05/25 01:23:37;;;;;;;0.70;0.50;;;9.80;80.50;;;;;;5001666;28;20493;-80
2021/05/25 01:26:15;;;;;;;1.03;0.80;;;9.80;80.00;;;;;;4996881;28;20534;-80
2021/05/25 01:28:51;;;;;;;2.70;0.67;;;9.80;79.50;;;;;;4988741;28;20464;-80
2021/05/25 01:31:26;;;;;;;1.63;0.80;;;9.70;79.90;;;;;;4994540;28;20457;-80
2021/05/25 01:34:01;;;;;;;1.40;0.97;;;9.70;79.50;;;;;;4989919;28;20459;-82
2021/05/25 01:36:36;;;;;;;0.80;0.80;;;9.70;79.30;;;;;;5005074;28;20527;-80
2021/05/25 01:39:11;;;;;;;0.80;0.67;;;9.70;80.00;;;;;;5005693;28;20518;-81
2021/05/25 01:41:46;;;;;;;1.63;1.07;;;9.60;79.70;;;;;;4993554;28;20970;-81
2021/05/25 01:44:21;;;;;;;1.33;0.73;;;9.60;79.90;;;;;;4990365;28;20472;-80
2021/05/25 01:47:04;;;;;;;0.90;0.60;;;9.70;79.60;;;;;;4999227;28;20447;-81
2021/05/25 01:49:39;;;;;;;2.97;0.60;;;9.60;80.00;;;;;;4987585;28;20462;-80
2021/05/25 01:52:14;;;;;;;0.67;0.63;;;9.60;80.40;;;;;;4994803;28;20452;-81
2021/05/25 01:54:49;;;;;;;1.13;0.80;;;9.60;79.20;;;;;;4992746;28;20456;-81
2021/05/25 01:57:24;;;;;;;2.40;0.90;;;9.60;79.10;;;;;;4989612;28;20444;-81
2021/05/25 01:59:59;;;;;;;1.00;0.70;;;9.60;79.20;;;;;;4999461;28;20469;-81
2021/05/25 02:02:41;;;;;;;0.70;0.53;;;9.50;79.90;;;;;;4992219;28;20448;-81
2021/05/25 02:05:17;;;;;;;2.00;0.80;;;9.50;79.80;;;;;;4990118;28;20496;-81
2021/05/25 02:07:53;;;;;;;1.10;0.60;;;9.40;80.10;;;;;;4995953;28;20451;-81
2021/05/25 02:10:42;;;;;;;0.83;0.73;;;9.40;80.70;;;;;;4988775;28;20505;-81
2021/05/25 02:13:18;;;;;;;2.40;0.80;;;9.40;80.90;;;;;;4995093;28;20455;-81
2021/05/25 02:15:55;;;;;;;0.63;0.63;;;9.40;80.80;;;;;;4995262;28;20900;-81
2021/05/25 02:18:32;;;;;;;1.90;0.90;;;9.40;80.90;;;;;;4994214;28;20452;-81
2021/05/25 02:21:09;;;;;;;1.87;1.10;;;9.40;82.00;;;;;;4999146;28;20459;-81
2021/05/25 02:23:44;;;;;;;1.37;1.17;;;9.40;83.90;;;;;;4998611;28;20633;-81
2021/05/25 02:26:20;;;;;;;0.90;0.70;;;9.30;83.10;;;;;;4994657;28;20459;-81
2021/05/25 02:28:55;;;;;;;0.80;0.80;;;9.30;83.40;;;;;;4996900;28;20462;-80
2021/05/25 02:31:30;;;;;;;2.60;1.10;;;9.30;84.30;;;;;;4996986;28;20531;-81
2021/05/25 02:34:05;;;;;;;0.63;0.63;;;9.30;84.70;;;;;;4997264;28;20444;-80
2021/05/25 02:36:39;;;;;;;1.97;0.90;;;9.20;84.90;;;;;;5001365;28;20442;-81
2021/05/25 02:39:14;;;;;;;2.00;0.93;;;9.10;85.80;;;;;;4994127;28;20482;-80
2021/05/25 02:41:49;;;;;;;1.47;0.90;;;9.10;85.10;;;;;;4996941;28;20468;-81
2021/05/25 02:44:24;;;;;;;1.60;1.00;;;9.10;84.80;;;;;;4999022;28;20472;-80
2021/05/25 02:46:59;;;;;;;2.10;0.90;;;9.00;85.80;;;;;;5003954;28;20538;-80
2021/05/25 02:49:34;;;;;;;1.17;0.93;;;9.00;86.30;;;;;;5010541;28;20462;-81
2021/05/25 02:52:09;;;;;;;1.17;0.80;;;9.00;86.40;;;;;;5012659;28;20457;-80
2021/05/25 02:54:44;;;;;;;1.40;1.10;;;9.00;86.30;;;;;;5012050;28;20462;-80
2021/05/25 02:57:19;;;;;;;2.50;0.90;;;9.00;86.70;;;;;;5020400;28;20444;-80
2021/05/25 02:59:54;;;;;;;1.27;1.00;;;8.90;86.10;;;;;;5014681;28;20435;-81
2021/05/25 03:02:27;;;;;;;1.10;0.90;;;8.90;86.10;;;;;;5004145;28;20514;-80
2021/05/25 03:05:01;;;;;;;1.60;1.30;;;8.90;86.20;;;;;;5008026;28;21012;-80
2021/05/25 03:07:36;;;;;;;1.63;1.23;;;8.90;86.10;;;;;;5001726;28;20459;-81
2021/05/25 03:10:14;;;;;;;1.67;1.20;;;8.80;86.00;;;;;;5004328;28;20459;-82
2021/05/25 03:12:51;;;;;;;1.67;1.07;;;8.90;84.80;;;;;;5001691;28;20474;-81
2021/05/25 03:15:28;;;;;;;2.80;1.07;;;8.90;83.00;;;;;;5003316;28;20517;-81
2021/05/25 03:18:03;;;;;;;1.53;0.70;;;8.80;83.60;;;;;;4994909;28;20474;-81
2021/05/25 03:20:38;;;;;;;2.80;0.80;;;8.70;83.30;;;;;;4992407;28;20452;-81
2021/05/25 03:23:14;;;;;;;1.83;1.10;;;8.70;83.60;;;;;;4989150;28;20456;-81
2021/05/25 03:25:50;;;;;;;1.37;0.80;;;8.60;84.60;;;;;;4990716;28;20471;-81
2021/05/25 03:28:26;;;;;;;1.40;0.93;;;8.50;83.70;;;;;;4991038;28;20851;-81
2021/05/25 03:31:00;;;;;;;1.43;1.07;;;8.40;85.00;;;;;;4992955;28;20444;-81
2021/05/25 03:33:35;;;;;;;3.13;1.23;;;8.40;85.30;;;;;;4988646;28;20498;-81
2021/05/25 03:36:10;;;;;;;1.20;0.83;;;8.30;85.00;;;;;;4996988;28;20480;-82
2021/05/25 03:38:45;;;;;;;0.90;0.70;;;8.20;84.80;;;;;;4987979;28;20968;-79
2021/05/25 03:41:20;;;;;;;2.13;0.83;;;8.20;84.50;;;;;;4991926;28;20451;-80
2021/05/25 03:43:56;;;;;;;1.43;0.80;;;8.30;83.80;;;;;;4993740;28;20454;-80
2021/05/25 03:46:32;;;;;;;3.73;0.90;;;8.30;84.00;;;;;;4996103;28;20484;-80
2021/05/25 03:49:06;;;;;;;2.17;1.27;;;8.20;85.40;;;;;;4995263;28;20459;-81
2021/05/25 03:51:42;;;;;;;3.40;1.27;;;8.10;86.60;;;;;;4999682;28;20468;-80
2021/05/25 03:54:20;;;;;;;3.43;1.13;;;8.20;86.70;;;;;;4999699;28;20520;-81
2021/05/25 03:56:57;;;;;;;4.33;1.47;;;8.10;87.10;;;;;;4983684;28;20933;-81
2021/05/25 03:59:33;;;;;;;4.07;1.30;;;8.10;87.60;;;;;;4994790;28;20463;-81
2021/05/25 04:02:07;;;;;;;1.77;1.27;;;8.10;88.20;;;;;;4991887;28;20534;-80
2021/05/25 04:04:42;;;;;;;2.43;1.57;;;8.10;88.90;;;;;;4992620;28;20471;-81
2021/05/25 04:07:17;;;;;;;2.10;0.90;;;8.00;90.10;;;;;;4993301;28;20447;-80
2021/05/25 04:09:52;;;;;;;2.07;1.37;;;8.00;89.80;;;;;;4993176;28;20992;-80
2021/05/25 04:12:24;;;;;;;1.60;0.90;;;8.00;89.90;;;;;;4997750;28;21499;-80
2021/05/25 04:15:00;;;;;;;2.83;1.63;;;7.90;89.70;;;;;;4993812;28;20542;-80
2021/05/25 04:17:34;;;;;;;2.87;1.40;;;8.00;90.00;;;;;;4998985;28;20911;-80
2021/05/25 04:20:10;;;;;;;1.37;1.10;;;8.10;89.70;;;;;;4988348;28;21124;-81
2021/05/25 04:22:46;;;;;;;5.83;1.27;;;8.30;88.00;;;;;;4999816;28;20524;-81
2021/05/25 04:25:21;;;;;;;2.50;1.23;;;9.10;86.40;;;;;;4990490;28;20581;-80
2021/05/25 04:27:56;;;;;;;4.30;1.60;;;8.70;82.60;;;;;;4999667;28;20456;-81
2021/05/25 04:30:32;;;;;;;1.33;1.23;;;8.60;83.40;;;;;;4992515;28;20467;-81
2021/05/25 04:33:08;;;;;;;3.53;1.10;;;11.20;82.40;;;;;;4998951;28;20574;-81
2021/05/25 04:35:43;;;;;;;1.83;0.83;;;14.90;71.80;;;;;;4992939;28;20452;-81
2021/05/25 04:38:17;;;;;;;2.60;1.20;;;14.70;64.20;;;;;;5002183;28;20455;-81
2021/05/25 04:40:52;;;;;;;4.83;1.47;;;14.50;66.00;;;;;;4996137;28;20498;-81
2021/05/25 04:43:26;;;;;;;2.00;1.20;;;16.20;63.80;;;;;;4998836;28;20470;-81
2021/05/25 04:45:59;;;;;;;1.63;1.00;;;17.70;60.80;;;;;;5003169;28;20559;-81
2021/05/25 04:48:34;;;;;;;2.37;0.97;;;18.90;58.20;;;;;;4999421;28;20480;-81
2021/05/25 04:51:09;;;;;;;4.33;1.20;;;19.50;56.60;;;;;;4994153;28;20537;-81
2021/05/25 04:53:44;;;;;;;2.73;1.60;;;20.30;55.40;;;;;;4995779;28;20509;-80
2021/05/25 04:56:20;;;;;;;2.80;1.60;;;20.80;54.30;;;;;;4996410;28;20458;-82
2021/05/25 04:58:55;;;;;;;2.60;1.27;;;20.60;53.00;;;;;;4995039;28;20456;-82
2021/05/25 05:01:30;;;;;;;2.43;1.00;;;20.60;53.00;;;;;;4993465;28;20458;-82
2021/05/25 05:04:05;;;;;;;2.60;1.50;;;20.70;52.60;;;;;;4996161;28;20448;-82
2021/05/25 05:06:45;;;;;;;2.60;0.87;;;20.10;52.00;;;;;;4994508;28;20455;-81
2021/05/25 05:09:20;;;;;;;1.57;0.70;;;19.30;51.80;;;;;;4991557;28;20442;-82
2021/05/25 05:11:55;;;;;;;2.53;1.07;;;19.00;52.40;;;;;;4988967;28;20458;-81
2021/05/25 05:14:29;;;;;;;1.83;0.83;;;15.60;52.50;;;;;;4990682;28;20482;-82
2021/05/25 05:17:05;;;;;;;2.90;1.13;;;18.80;54.10;;;;;;4995212;28;20549;-82
2021/05/25 05:19:40;;;;;;;5.17;1.00;;;20.70;52.80;;;;;;5000642;28;20480;-82
2021/05/25 05:22:14;;;;;;;5.43;1.10;;;21.20;51.50;;;;;;4989941;28;20483;-80
2021/05/25 05:24:49;;;;;;;1.27;0.80;;;21.10;51.20;;;;;;4985693;28;20505;-81
2021/05/25 05:27:25;;;;;;;1.80;0.70;;;20.70;50.20;;;;;;4989614;28;20451;-79
2021/05/25 05:29:59;;;;;;;1.57;1.13;;;18.60;49.70;;;;;;4991911;28;20476;-79
2021/05/25 05:32:36;;;;;;;1.43;0.60;;;18.70;50.40;;;;;;4981442;28;20458;-78
2021/05/25 05:35:12;;;;;;;2.00;1.10;;;19.30;50.10;;;;;;4984747;28;20455;-79
2021/05/25 05:37:46;;;;;;;4.23;1.37;;;19.30;50.40;;;;;;4984177;28;20601;-79
2021/05/25 05:40:21;;;;;;;3.97;0.70;;;19.00;50.60;;;;;;4982938;28;20524;-79
2021/05/25 05:42:56;;;;;;;1.57;0.90;;;19.30;50.50;;;;;;4992157;28;20465;-81
2021/05/25 05:45:32;;;;;;;0.93;0.60;;;19.20;49.40;;;;;;4988877;28;20523;-80
2021/05/25 05:48:08;;;;;;;0.90;0.70;;;19.20;49.10;;;;;;4989767;28;20512;-80
2021/05/25 05:50:43;;;;;;;1.83;0.80;;;17.90;47.90;;;;;;4985156;28;20989;-79
2021/05/25 05:53:17;;;;;;;3.37;1.03;;;17.50;50.80;;;;;;4985135;28;20458;-79
2021/05/25 05:55:50;;;;;;;5.17;1.20;;;18.40;49.80;;;;;;4986220;28;20546;-80
2021/05/25 05:58:24;;;;;;;4.17;0.97;;;19.50;49.50;;;;;;4988009;28;20529;-80
2021/05/25 06:00:59;;;;;;;1.80;0.70;;;19.80;48.80;;;;;;4994096;28;20972;-79
2021/05/25 06:03:35;;;;;;;0.80;0.53;;;20.40;48.60;;;;;;4992555;28;20456;-80
2021/05/25 06:06:11;;;;;;;3.17;1.20;;;17.40;46.40;;;;;;4997350;28;20501;-79
2021/05/25 06:08:46;;;;;;;2.47;0.90;;;16.80;49.50;;;;;;4987219;28;20760;-78
2021/05/25 06:11:21;;;;;;;1.20;0.87;;;16.30;48.50;;;;;;4990695;28;20501;-79
2021/05/25 06:13:57;;;;;;;7.63;1.20;;;14.30;48.80;;;;;;4979675;28;20450;-78
2021/05/25 06:16:32;;;;;;;2.50;0.90;;;12.90;50.30;;;;;;4985447;28;20451;-78
2021/05/25 06:19:08;;;;;;;1.80;1.20;;;12.40;50.90;;;;;;4984960;28;20453;-78
2021/05/25 06:21:43;;;;;;;2.47;0.80;;;12.30;51.60;;;;;;4993812;28;20517;-79
2021/05/25 06:24:18;;;;;;;2.20;1.20;;;12.10;52.00;;;;;;4990789;28;20511;-80
2021/05/25 06:26:52;;;;;;;2.03;1.20;;;11.80;52.10;;;;;;4996381;28;20466;-78
2021/05/25 06:29:27;;;;;;;1.83;1.13;;;11.50;52.70;;;;;;4994589;28;20459;-79
2021/05/25 06:32:02;;;;;;;1.00;0.80;;;11.70;52.80;;;;;;4996809;28;20448;-78
2021/05/25 06:34:38;;;;;;;1.80;0.93;;;11.80;53.20;;;;;;4999702;28;20454;-78
2021/05/25 06:37:13;;;;;;;2.67;0.87;;;11.90;53.00;;;;;;5000123;28;20436;-79
2021/05/25 06:39:48;;;;;;;1.17;0.60;;;11.90;53.10;;;;;;4997223;28;20468;-79
2021/05/25 06:42:23;;;;;;;1.77;0.57;;;11.80;52.90;;;;;;4998405;28;20523;-79
2021/05/25 06:44:58;;;;;;;2.93;0.70;;;11.70;53.00;;;;;;5002492;28;20504;-78
2021/05/25 06:47:31;;;;;;;3.67;0.90;;;11.70;52.90;;;;;;4991049;28;20490;-79
2021/05/25 06:50:07;;;;;;;2.43;0.60;;;11.70;52.50;;;;;;4991802;28;20592;-79
2021/05/25 06:52:42;;;;;;;2.90;0.93;;;11.70;52.10;;;;;;4990452;28;20448;-79
2021/05/25 06:55:17;;;;;;;2.17;0.97;;;12.30;52.90;;;;;;4992538;28;20870;-78
2021/05/25 06:58:07;;;;;;;2.13;0.90;;;12.90;51.70;;;;;;4996373;28;20532;-82
2021/05/25 07:00:42;;;;;;;1.30;0.70;;;12.80;50.80;;;;;;4995423;28;20468;-84
2021/05/25 07:03:18;;;;;;;1.30;0.50;;;12.80;51.00;;;;;;4992181;28;20469;-84
2021/05/25 07:05:54;;;;;;;3.67;1.20;;;13.10;50.60;;;;;;4998966;28;20478;-84
2021/05/25 07:08:31;;;;;;;0.97;0.50;;;13.50;50.30;;;;;;5000181;28;20539;-85
2021/05/25 07:11:06;;;;;;;2.37;1.00;;;13.40;49.70;;;;;;5006337;28;20529;-85
2021/05/25 07:13:42;;;;;;;0.97;0.60;;;13.60;49.00;;;;;;4987474;28;20811;-84
2021/05/25 07:16:17;;;;;;;3.40;2.20;;;13.40;49.10;;;;;;4996139;28;20529;-84
2021/05/25 07:18:59;;;;;;;6.87;0.67;;;13.50;49.40;;;;;;4995762;28;21130;-83
2021/05/25 07:21:35;;;;;;;3.03;0.83;;;13.30;49.00;;;;;;4997003;28;20503;-83
2021/05/25 07:24:08;;;;;;;4.03;0.80;;;13.50;48.60;;;;;;4999436;28;20619;-83
2021/05/25 07:26:43;;;;;;;1.67;1.13;;;13.90;49.00;;;;;;5001123;28;20484;-83
2021/05/25 07:29:18;;;;;;;1.07;0.67;;;14.20;48.80;;;;;;4996629;28;20430;-84
2021/05/25 07:31:53;;;;;;;1.97;0.60;;;14.50;48.40;;;;;;5002779;28;20461;-82
2021/05/25 07:34:29;;;;;;;1.53;0.40;;;14.00;48.40;;;;;;5000976;28;20458;-83
2021/05/25 07:37:10;;;;;;;2.77;0.60;;;14.10;48.80;;;;;;5002600;28;20478;-83
2021/05/25 07:39:46;;;;;;;1.80;0.60;;;13.20;48.10;;;;;;4999527;28;20976;-84
2021/05/25 07:42:21;;;;;;;3.90;0.80;;;13.10;48.30;;;;;;4990081;28;20478;-84
2021/05/25 07:44:53;;;;;;;1.27;0.70;;;;;;;;;;4993462;28;20548;-83
2021/05/25 07:47:29;;;;;;;1.93;0.50;;;13.70;48.40;;;;;;4998658;28;20543;-84
2021/05/25 07:50:13;;;;;;;1.73;0.90;;;14.00;48.50;;;;;;5001483;28;20542;-83
2021/05/25 07:52:50;;;;;;;3.63;1.67;;;13.80;48.50;;;;;;4996465;28;20456;-83
2021/05/25 07:58:25;;;;;;;2.83;0.77;;;13.70;49.50;;;;;;4990507;28;20472;-89
2021/05/25 08:16:25;;;;;;;2.47;1.73;;;13.50;47.10;;;;;;5131350;27;21087;-88
2021/05/25 08:33:39;;;;;;;1.47;0.50;;;14.40;46.20;;;;;;5119474;28;20251;-89
2021/05/25 08:51:47;;;;;;;4.70;0.87;;;14.20;45.30;;;;;;5123764;28;20441;-87
2021/05/25 08:54:23;;;;;;;5.40;1.10;;;14.60;45.10;;;;;;5131598;28;20437;-86
2021/05/25 08:56:58;;;;;;;1.87;1.40;;;15.30;45.00;;;;;;5117119;28;20203;-86
2021/05/25 08:59:40;;;;;;;0.83;0.53;;;15.30;44.90;;;;;;5120055;28;20458;-85
2021/05/25 09:05:39;;;;;;;0.80;0.60;;;15.30;44.80;;;;;;5127682;28;20420;-86
2021/05/25 09:08:14;;;;;;;1.70;0.60;;;15.50;44.30;;;;;;5109926;28;20198;-84
2021/05/25 09:10:48;;;;;;;1.07;0.67;;;14.10;44.10;;;;;;5117643;28;20480;-89
2021/05/25 09:13:32;;;;;;;1.00;0.60;;;13.70;45.30;;;;;;5110108;28;20457;-85
2021/05/25 09:16:15;;;;;;;1.90;0.70;;;13.10;46.50;;;;;;5113695;28;20444;-85
2021/05/25 09:18:58;;;;;;;1.43;0.60;;;13.00;46.80;;;;;;5123065;28;20478;-85
2021/05/25 09:21:42;;;;;;;3.53;1.03;;;12.90;47.20;;;;;;5107557;28;20468;-86
2021/05/25 09:24:17;;;;;;;2.20;1.23;;;13.00;47.80;;;;;;5107852;28;20552;-86
2021/05/25 09:27:07;;;;;;;2.10;0.70;;;13.10;48.60;;;;;;5096690;28;20456;-91
2021/05/25 09:29:49;;;;;;;1.53;0.70;;;12.70;48.80;;;;;;5097051;28;20920;-88
2021/05/25 09:32:22;;;;;;;1.33;0.60;;;12.70;49.60;;;;;;5093100;28;20452;-87
2021/05/25 09:35:13;;;;;;;1.43;0.53;;;13.00;50.10;;;;;;5098666;28;20504;-88
2021/05/25 09:38:05;;;;;;;1.93;0.60;;;13.40;49.70;;;;;;5096105;28;20446;-87
2021/05/25 09:40:41;;;;;;;1.33;0.50;;;13.90;49.20;;;;;;5091458;28;20472;-88
2021/05/25 09:49:13;;;;;;;2.20;0.50;;;15.50;48.00;;;;;;5087871;28;20481;-88
2021/05/25 09:51:51;;;;;;;1.03;0.50;;;15.80;48.10;;;;;;5095172;28;20446;-87
2021/05/25 09:54:35;;;;;;;0.80;0.50;;;15.00;47.00;;;;;;5104307;28;20482;-88
2021/05/25 10:00:28;;;;;;;0.90;0.63;;;15.60;46.50;;;;;;5103655;28;20472;-85
2021/05/25 10:03:31;;;;;;;1.07;0.67;;;15.80;46.30;;;;;;5102023;28;20439;-87
2021/05/25 10:06:09;;;;;;;1.90;0.70;;;16.00;46.30;;;;;;5114283;28;20453;-86
2021/05/25 10:11:47;;;;;;;1.03;0.60;;;14.80;45.80;;;;;;5120025;28;20524;-86
2021/05/25 10:20:13;;;;;;;1.37;0.60;;;14.80;46.70;;;;;;5086807;28;20460;-86
2021/05/25 10:22:50;;;;;;;3.33;0.80;;;15.20;46.80;;;;;;5094837;28;20489;-86
2021/05/25 10:28:51;;;;;;;0.60;0.47;;;15.90;46.30;;;;;;5103365;28;20542;-78
2021/05/25 10:31:35;;;;;;;1.10;0.50;;;16.10;46.40;;;;;;5096602;28;20443;-78
2021/05/25 10:34:33;;;;;;;1.47;0.60;;;15.10;46.80;;;;;;5097497;28;20836;-78
2021/05/25 10:37:16;;;;;;;0.90;0.60;;;14.70;48.30;;;;;;5094838;28;20458;-77
2021/05/25 10:39:56;;;;;;;1.73;0.67;;;14.20;48.50;;;;;;5095036;28;20479;-78
2021/05/25 10:42:34;;;;;;;1.90;0.80;;;14.30;49.60;;;;;;5093110;28;20454;-78
2021/05/25 10:45:20;;;;;;;0.93;0.50;;;14.10;50.10;;;;;;5099004;28;20479;-79
2021/05/25 10:48:08;;;;;;;2.43;0.97;;;14.90;50.00;;;;;;5093751;28;20438;-80
2021/05/25 10:50:54;;;;;;;2.40;0.60;;;15.20;49.90;;;;;;5097744;28;20466;-79
2021/05/25 10:53:29;;;;;;;2.10;0.57;;;15.70;49.40;;;;;;5087480;28;20454;-80
2021/05/25 10:56:14;;;;;;;2.27;0.50;;;15.40;49.40;;;;;;5093703;28;20450;-81
2021/05/25 10:59:07;;;;;;;1.90;0.60;;;13.00;50.50;;;;;;5093313;28;20480;-79
2021/05/25 11:01:44;;;;;;;0.50;0.33;;;12.60;51.50;;;;;;5089879;28;20452;-79
2021/05/25 11:04:18;;;;;;;4.30;0.40;;;11.70;53.30;;;;;;5093267;28;20829;-80
2021/05/25 11:06:53;;;;;;;1.33;0.50;;;11.60;53.30;;;;;;5095764;28;20443;-78
2021/05/25 11:09:30;;;;;;;1.23;0.40;;;11.90;53.10;;;;;;5101475;28;20436;-77
2021/05/25 11:12:26;;;;;;;0.87;0.50;;;13.00;51.60;;;;;;5105243;28;20452;-83
2021/05/25 11:15:20;;;;;;;2.57;0.83;;;13.80;50.60;;;;;;5086309;28;20473;-79
2021/05/25 11:17:58;;;;;;;1.23;0.60;;;14.60;49.80;;;;;;5088234;28;20507;-80
2021/05/25 11:21:07;;;;;;;4.60;1.10;;;14.40;48.60;;;;;;5085889;28;20525;-80
2021/05/25 11:23:51;;;;;;;0.63;0.53;;;14.30;49.30;;;;;;5091787;28;20443;-82
2021/05/25 11:26:39;;;;;;;3.17;0.50;;;;;;;;;;5098325;28;20441;-78
2021/05/25 11:29:24;;;;;;;2.90;0.60;;;14.80;46.90;;;;;;5089042;28;20451;-78
2021/05/25 11:32:00;;;;;;;0.57;0.53;;;14.70;47.00;;;;;;5095269;28;20446;-79
2021/05/25 11:34:37;;;;;;;7.00;0.73;;;14.60;46.80;;;;;;5089810;28;20470;-84
2021/05/25 11:37:14;;;;;;;6.43;0.77;;;15.10;46.20;;;;;;5090422;28;20460;-81
2021/05/25 11:39:57;;;;;;;5.30;0.70;;;15.20;46.40;;;;;;5094133;28;20462;-86
2021/05/25 11:42:44;;;;;;;3.10;0.73;;;15.30;46.00;;;;;;5100901;28;20458;-88
2021/05/25 11:45:22;;;;;;;1.77;0.50;;;15.50;46.40;;;;;;5093889;28;20461;-88
2021/05/25 11:48:40;;;;;;;2.10;0.50;;;15.00;46.20;;;;;;5104797;28;20461;-88
2021/05/25 11:55:07;;;;;;;1.57;0.60;;;15.50;45.80;;;;;;5123847;27;20572;-88
2021/05/25 12:00:40;;;;;;;2.33;1.10;;;15.60;44.20;;;;;;5129278;27;20453;-87
2021/05/25 12:03:32;;;;;;;1.97;0.60;;;15.10;44.80;;;;;;5119723;28;20468;-87
2021/05/25 12:15:11;;;;;;;1.90;1.03;;;15.10;44.40;;;;;;5115698;28;20503;-86
2021/05/25 12:20:50;;;;;;;1.23;0.80;;;16.00;43.90;;;;;;5107223;28;20461;-86
2021/05/25 12:23:44;;;;;;;1.00;0.67;;;15.10;43.20;;;;;;5116655;28;20444;-87
2021/05/25 12:26:28;;;;;;;0.73;0.70;;;15.00;43.60;;;;;;5121807;28;20468;-87
2021/05/25 12:29:08;;;;;;;4.53;1.27;;;15.30;43.60;;;;;;5109988;28;20451;-89
2021/05/25 12:32:06;;;;;;;1.10;0.70;;;15.80;44.00;;;;;;5115480;28;21008;-87
2021/05/25 12:38:11;;;;;;;2.90;1.00;;;15.40;43.40;;;;;;5117775;28;20510;-89
2021/05/25 12:44:32;;;;;;;2.20;0.77;;;14.90;43.50;;;;;;5099142;28;20456;-89
2021/05/25 12:47:10;;;;;;;2.63;0.80;;;14.80;43.60;;;;;;5097148;28;20500;-79
2021/05/25 12:53:38;;;;;;;2.47;0.60;;;14.50;44.00;;;;;;5095137;28;20653;-79
2021/05/25 12:59:35;;;;;;;3.57;1.10;;;13.60;45.20;;;;;;5097964;28;20449;-79
2021/05/25 13:02:11;;;;;;;2.33;1.10;;;13.20;46.20;;;;;;5090563;28;20452;-78
2021/05/25 13:04:53;;;;;;;3.00;1.00;;;13.00;47.20;;;;;;5077864;28;21190;-83
2021/05/25 13:07:28;;;;;;;2.15;1.20;;;12.70;47.30;;;;;;5083842;28;20528;-79
2021/05/25 13:10:24;;;;;;;2.83;0.87;;;11.40;55.70;;;;;;5081932;28;20201;-81
2021/05/25 13:13:16;;;;;;;1.27;1.07;;;11.50;55.90;;;;;;5081839;28;20471;-77
2021/05/25 13:15:53;;;;;;;3.10;1.07;;;12.60;56.40;;;;;;5083983;28;20444;-82
2021/05/25 13:18:47;;;;;;;3.10;1.20;;;13.20;55.70;;;;;;5090847;28;20493;-80
2021/05/25 13:21:33;;;;;;;3.23;1.40;;;13.20;53.30;;;;;;5086031;28;20448;-84
2021/05/25 13:24:14;;;;;;;1.35;0.70;;;13.40;53.90;;;;;;5076754;28;20442;-86
2021/05/25 13:26:57;;;;;;;2.47;0.80;;;13.30;50.70;;;;;;5077451;28;20260;-87
2021/05/25 13:30:06;;;;;;;1.13;0.67;;;14.30;48.20;;;;;;5077204;28;20470;-86
2021/05/25 13:32:42;;;;;;;1.47;0.70;;;14.20;48.10;;;;;;5082016;28;20482;-89
2021/05/25 13:35:33;;;;;;;1.70;0.63;;;14.30;48.70;;;;;;5088358;28;20511;-86
2021/05/25 13:38:12;;;;;;;0.90;0.60;;;;;;;;;;5085296;28;20463;-88
2021/05/25 13:44:03;;;;;;;2.40;0.80;;;15.20;46.80;;;;;;5090227;28;20495;-88
2021/05/25 13:49:40;;;;;;;4.30;0.90;;;15.90;46.40;;;;;;5091664;28;20470;-88
2021/05/25 13:58:28;;;;;;;2.60;1.00;;;14.80;47.90;;;;;;5076666;28;20478;-85
2021/05/25 14:01:24;;;;;;;2.10;0.90;;;15.10;47.50;;;;;;5086043;28;20209;-87
2021/05/25 14:04:14;;;;;;;2.43;1.00;;;15.20;47.80;;;;;;5090207;28;20456;-88
2021/05/25 14:12:40;;;;;;;2.37;1.17;;;14.00;46.80;;;;;;5081049;28;20479;-86
2021/05/25 14:15:22;;;;;;;1.33;0.90;;;13.50;47.70;;;;;;5081245;28;20997;-87
2021/05/25 14:21:06;;;;;;;1.90;1.20;;;13.00;51.80;;;;;;5078956;28;20560;-87
2021/05/25 14:23:53;;;;;;;1.87;0.83;;;13.20;51.90;;;;;;5082006;28;20457;-88
2021/05/25 14:26:57;;;;;;;2.13;1.20;;;13.20;50.40;;;;;;5074982;28;20484;-85
2021/05/25 14:32:57;;;;;;;3.03;1.10;;;12.30;55.90;;;;;;5071305;28;20483;-86
2021/05/25 14:36:04;;;;;;;1.17;0.80;;;12.50;58.00;;;;;;5073495;28;20402;-83
2021/05/25 14:38:39;;;;;;;1.20;0.70;;;13.40;55.00;;;;;;5068702;28;20448;-82
2021/05/25 14:41:14;;;;;;;1.47;0.80;;;13.50;53.90;;;;;;5069981;28;20454;-84
2021/05/25 14:43:50;;;;;;;1.37;0.97;;;13.40;54.50;;;;;;5074473;28;20456;-85
2021/05/25 14:46:25;;;;;;;1.03;0.67;;;13.70;54.30;;;;;;5078563;28;20461;-76
2021/05/25 14:49:00;;;;;;;3.30;1.37;;;13.10;51.60;;;;;;5074021;28;20508;-80
2021/05/25 14:51:35;;;;;;;1.30;1.00;;;13.30;52.10;;;;;;5069037;28;20541;-80
2021/05/25 14:54:11;;;;;;;1.10;1.00;;;13.50;51.40;;;;;;5073307;28;20834;-79
2021/05/25 14:56:46;;;;;;;1.40;0.87;;;13.40;51.00;;;;;;5066066;28;20460;-77
2021/05/25 14:59:22;;;;;;;2.83;1.00;;;13.50;50.50;;;;;;5062937;28;20985;-80
2021/05/25 15:02:01;;;;;;;1.77;0.87;;;13.80;50.90;;;;;;5065111;28;20534;-78
2021/05/25 15:04:40;;;;;;;1.50;0.90;;;14.00;50.20;;;;;;5067376;28;20445;-77
2021/05/25 15:07:21;;;;;;;1.40;1.07;;;14.40;50.20;;;;;;5067765;28;20454;-78
2021/05/25 15:09:58;;;;;;;2.73;1.07;;;14.50;49.90;;;;;;5071055;28;20509;-80
2021/05/25 15:12:33;;;;;;;1.00;0.80;;;15.10;50.30;;;;;;5070936;28;20490;-78
2021/05/25 15:15:09;;;;;;;1.80;0.93;;;14.80;49.50;;;;;;5066313;28;20444;-77
2021/05/25 15:17:43;;;;;;;4.00;1.07;;;14.50;49.70;;;;;;5070032;28;20803;-77
2021/05/25 15:20:20;;;;;;;2.10;1.20;;;15.00;49.80;;;;;;5068502;28;20438;-78
2021/05/25 15:22:55;;;;;;;2.83;0.83;;;15.20;48.60;;;;;;5068316;28;20457;-81
2021/05/25 15:25:31;;;;;;;3.87;1.03;;;15.30;48.70;;;;;;5067048;28;20445;-78
2021/05/25 15:28:07;;;;;;;1.20;0.83;;;15.60;48.30;;;;;;5067916;28;20580;-77
2021/05/25 15:30:46;;;;;;;1.60;1.10;;;15.50;47.60;;;;;;5073200;28;20452;-79
2021/05/25 15:33:24;;;;;;;1.93;0.80;;;15.30;45.50;;;;;;5074130;28;20460;-79
2021/05/25 15:35:59;;;;;;;1.20;0.97;;;15.50;46.50;;;;;;5074896;28;20441;-77
2021/05/25 15:38:33;;;;;;;1.83;1.13;;;15.50;46.70;;;;;;5069778;28;20462;-77
2021/05/25 15:41:08;;;;;;;2.40;1.13;;;15.50;46.30;;;;;;5069079;28;20802;-79
2021/05/25 15:43:43;;;;;;;4.40;1.60;;;15.40;46.70;;;;;;5064133;28;20464;-78
2021/05/25 15:46:23;;;;;;;2.17;1.30;;;16.60;45.90;;;;;;5064512;28;20467;-81
2021/05/25 15:48:58;;;;;;;1.10;0.97;;;16.90;45.20;;;;;;5068591;28;20545;-79
2021/05/25 15:51:32;;;;;;;3.10;1.03;;;16.70;44.70;;;;;;5067193;28;20445;-76
2021/05/25 15:54:08;;;;;;;3.00;1.17;;;16.00;43.00;;;;;;5064820;28;20457;-76
2021/05/25 15:56:44;;;;;;;1.73;0.63;;;16.00;43.00;;;;;;5061354;28;20485;-77